LBPL

Dolna Mitropoliya Air Base

Airport
ICAO code
LBPL
IATA Code
PVN
Summary
ICAO Region
EUR
ICAO Territory
Location

Dolna Mitropoliya, Pleven Province

Serving
Dolna Mitropoliya
Elevation
330 ft
Coordinates
43° 27' 6" N , 24° 30' 10" E
KCC
Metar
Observation
LBPL 082000Z 00000KT 5000 -RA OVC010 05/05 Q1015
Station
Dolna Mitropoliya Air Base
Date/Time
2022-12-08 20:00:00
Wind direction
Wind speed
00 kts
Lowest cloud amount
overcast
Temperature
5°C
Dew point
5°C
Humidity
100%
QNH
1015 hPa
Weather condition
n/a

Dolna Mitropoliya Air Base is a public use airport near Dolna Mitropoliya, Pleven, Bulgaria.

Climatology

Humid continental climate (Köppen climate classification Dfb)

Runways

Designator Length Width Surface Rops
10L/28R 2186 70 GRE No/No
10R/28L 2186 58 PEM No/No

Airport map

Aerial View

SKYbrary Partners:

Safety knowledge contributed by: